Time;durP1;ratioP1;P1;durP2;ratioP2;P2;SDS_P1;SDS_P2;PMS_P1;PMS_P2;Temp;Humidity;BMP_temperature;BMP_pressure;BME280_temperature;BME280_humidity;BME280_pressure;Samples;Min_cycle;Max_cycle;Signal;HPM_P1;HPM_P2
2024/02/03 00:00:11;;;;;;;16.02;8.60;;;9.40;99.90;;;;;;5076073;28;20046;-67
2024/02/03 00:02:37;;;;;;;16.77;8.68;;;9.40;99.90;;;;;;5109010;27;20504;-67
2024/02/03 00:05:02;;;;;;;18.65;9.15;;;9.40;99.90;;;;;;5081154;28;20035;-67
2024/02/03 00:07:28;;;;;;;17.88;7.90;;;9.40;99.90;;;;;;5098663;28;20047;-67
2024/02/03 00:10:12;;;;;;;18.52;8.18;;;9.40;99.90;;;;;;5082876;28;20075;-67
2024/02/03 00:12:38;;;;;;;22.38;7.57;;;9.40;99.90;;;;;;5064755;28;20061;-67
2024/02/03 00:15:04;;;;;;;19.20;7.50;;;9.40;99.90;;;;;;5082225;28;20118;-67
2024/02/03 00:17:30;;;;;;;19.08;7.07;;;9.30;99.90;;;;;;5078688;28;20036;-67
2024/02/03 00:19:55;;;;;;;15.15;7.50;;;9.40;99.90;;;;;;5099530;28;20034;-67
2024/02/03 00:22:21;;;;;;;17.67;8.00;;;9.40;99.90;;;;;;5083555;28;20088;-67
2024/02/03 00:24:47;;;;;;;13.70;7.35;;;9.40;99.90;;;;;;5081735;28;20489;-67
2024/02/03 00:27:12;;;;;;;18.70;7.15;;;9.40;99.90;;;;;;5112200;27;20730;-66
2024/02/03 00:29:38;;;;;;;14.98;7.50;;;9.40;99.90;;;;;;5098249;28;20036;-67
2024/02/03 00:32:04;;;;;;;19.13;6.60;;;9.40;99.90;;;;;;5080531;28;20036;-67
2024/02/03 00:34:30;;;;;;;16.13;6.28;;;9.40;99.90;;;;;;5079823;28;20478;-67
2024/02/03 00:36:55;;;;;;;11.95;6.93;;;9.40;99.90;;;;;;5082108;28;20036;-67
2024/02/03 00:39:21;;;;;;;14.07;6.70;;;9.40;99.90;;;;;;5079440;28;20039;-67
2024/02/03 00:41:47;;;;;;;13.20;6.15;;;9.50;99.90;;;;;;5079270;28;20044;-67
2024/02/03 00:44:14;;;;;;;14.48;6.50;;;9.50;99.90;;;;;;5097653;28;20070;-67
2024/02/03 00:46:40;;;;;;;15.35;5.72;;;9.40;99.90;;;;;;5115601;27;20052;-67
2024/02/03 00:49:05;;;;;;;11.98;6.72;;;9.50;99.90;;;;;;5078069;28;20067;-67
2024/02/03 00:51:31;;;;;;;10.73;5.15;;;9.50;99.90;;;;;;5080173;28;20047;-67
2024/02/03 00:53:57;;;;;;;19.90;6.88;;;9.50;99.90;;;;;;5053002;28;20040;-67
2024/02/03 00:56:22;;;;;;;15.30;5.68;;;9.50;99.90;;;;;;5079097;28;20434;-67
2024/02/03 00:58:48;;;;;;;16.60;5.35;;;9.50;99.90;;;;;;5080845;28;20039;-67
2024/02/03 01:01:14;;;;;;;13.88;4.57;;;9.40;99.90;;;;;;5077812;28;20047;-67
2024/02/03 01:03:42;;;;;;;10.52;4.93;;;9.40;99.90;;;;;;5092587;28;20036;-67
2024/02/03 01:06:08;;;;;;;10.80;4.70;;;9.50;99.90;;;;;;5095590;28;20063;-67
2024/02/03 01:08:34;;;;;;;11.38;4.97;;;9.50;99.90;;;;;;5110941;27;20081;-67
2024/02/03 01:10:59;;;;;;;10.65;4.30;;;9.50;99.90;;;;;;5077469;28;20505;-67
2024/02/03 01:13:25;;;;;;;11.05;5.05;;;9.50;99.90;;;;;;5096776;28;20843;-67
2024/02/03 01:15:51;;;;;;;11.25;4.15;;;9.50;99.90;;;;;;5096840;28;20048;-67
2024/02/03 01:18:16;;;;;;;10.48;4.30;;;9.50;99.90;;;;;;5077176;28;20029;-67
2024/02/03 01:20:42;;;;;;;10.73;3.72;;;9.50;99.90;;;;;;5093969;28;20032;-67
2024/02/03 01:23:07;;;;;;;9.02;4.43;;;9.50;99.90;;;;;;5079135;28;20122;-67
2024/02/03 01:25:33;;;;;;;12.43;4.63;;;9.50;99.90;;;;;;5098306;28;20141;-67
2024/02/03 01:27:59;;;;;;;11.35;3.92;;;9.50;99.90;;;;;;5097851;28;20036;-66
2024/02/03 01:30:24;;;;;;;10.35;3.60;;;9.50;99.90;;;;;;5083462;28;20039;-67
2024/02/03 01:32:50;;;;;;;13.02;4.10;;;9.50;99.90;;;;;;5117625;27;20050;-67
2024/02/03 01:35:16;;;;;;;10.23;3.70;;;9.50;99.90;;;;;;5076294;28;20032;-67
2024/02/03 01:37:41;;;;;;;8.75;3.78;;;9.50;99.90;;;;;;5085811;28;20121;-67
2024/02/03 01:40:08;;;;;;;10.07;3.42;;;9.60;99.90;;;;;;5092845;28;20129;-67
2024/02/03 01:42:33;;;;;;;10.13;3.60;;;9.60;99.90;;;;;;5099351;28;20043;-67
2024/02/03 01:44:59;;;;;;;7.10;3.78;;;9.60;99.90;;;;;;5097721;28;20023;-67
2024/02/03 01:47:25;;;;;;;10.82;3.40;;;9.50;99.90;;;;;;5096233;28;20043;-67
2024/02/03 01:49:52;;;;;;;7.07;3.42;;;9.60;99.90;;;;;;5095777;28;20042;-67
2024/02/03 01:52:18;;;;;;;9.00;3.03;;;9.50;99.90;;;;;;5109401;27;20093;-67
2024/02/03 01:54:45;;;;;;;12.13;3.85;;;9.60;99.90;;;;;;5096616;28;20074;-67
2024/02/03 01:57:14;;;;;;;12.75;3.72;;;9.60;99.90;;;;;;5096722;28;20055;-67
2024/02/03 01:59:40;;;;;;;11.57;2.95;;;9.60;99.90;;;;;;5098691;28;20043;-67
2024/02/03 02:02:06;;;;;;;10.18;3.60;;;9.60;99.90;;;;;;5077149;28;20048;-67
2024/02/03 02:04:32;;;;;;;9.60;3.53;;;9.60;99.90;;;;;;5072366;28;20180;-67
2024/02/03 02:06:58;;;;;;;11.10;4.20;;;9.60;99.90;;;;;;5091795;28;20040;-67
2024/02/03 02:09:25;;;;;;;9.40;3.47;;;9.60;99.90;;;;;;5092392;28;20082;-67
2024/02/03 02:11:53;;;;;;;8.77;3.60;;;9.60;99.90;;;;;;5079062;28;20050;-67
2024/02/03 02:14:21;;;;;;;10.65;3.50;;;9.60;99.90;;;;;;5111205;27;20069;-67
2024/02/03 02:16:46;;;;;;;13.40;4.03;;;9.60;99.90;;;;;;5074520;28;20089;-66
2024/02/03 02:19:12;;;;;;;13.05;4.32;;;9.60;99.90;;;;;;5093300;28;20040;-67
2024/02/03 02:21:38;;;;;;;11.10;3.97;;;9.60;99.90;;;;;;5076494;28;20093;-67
2024/02/03 02:24:04;;;;;;;13.75;3.42;;;9.60;99.90;;;;;;5061261;28;20571;-67
2024/02/03 02:26:29;;;;;;;10.00;3.42;;;9.60;99.90;;;;;;5079814;28;20371;-67
2024/02/03 02:28:55;;;;;;;10.68;3.50;;;9.60;99.90;;;;;;5080941;28;20078;-67
2024/02/03 02:31:21;;;;;;;10.02;3.35;;;9.60;99.90;;;;;;5075132;28;20292;-67
2024/02/03 02:33:46;;;;;;;10.48;3.97;;;9.60;99.90;;;;;;5077179;28;20036;-67
2024/02/03 02:36:12;;;;;;;12.02;3.72;;;9.60;99.90;;;;;;5094844;28;20024;-67
2024/02/03 02:38:38;;;;;;;9.60;3.13;;;9.60;99.90;;;;;;5094038;28;20043;-68
2024/02/03 02:41:04;;;;;;;11.98;3.40;;;9.60;99.90;;;;;;5075516;28;20575;-67
2024/02/03 02:43:29;;;;;;;9.63;3.15;;;9.50;99.90;;;;;;5075583;28;20058;-67
2024/02/03 02:45:56;;;;;;;12.98;4.10;;;9.60;99.90;;;;;;5078186;28;20044;-67
2024/02/03 02:48:21;;;;;;;7.22;3.17;;;9.50;99.90;;;;;;5076443;28;20052;-67
2024/02/03 02:50:47;;;;;;;12.38;3.63;;;9.60;99.90;;;;;;5072209;28;20540;-67
2024/02/03 02:53:13;;;;;;;9.07;2.92;;;9.50;99.90;;;;;;5106658;28;20045;-67
2024/02/03 02:55:39;;;;;;;9.82;3.47;;;9.50;99.90;;;;;;5078398;28;20028;-67
2024/02/03 02:58:06;;;;;;;8.63;3.13;;;9.50;99.90;;;;;;5099966;28;20507;-67
2024/02/03 03:00:31;;;;;;;10.88;3.50;;;9.60;99.90;;;;;;5076971;28;20166;-67
2024/02/03 03:02:57;;;;;;;9.43;3.03;;;9.60;99.90;;;;;;5072279;28;21890;-67
2024/02/03 03:05:23;;;;;;;10.77;2.85;;;9.60;99.90;;;;;;5084238;28;20047;-67
2024/02/03 03:07:48;;;;;;;11.25;3.20;;;9.60;99.90;;;;;;5081319;28;20035;-67
2024/02/03 03:10:14;;;;;;;11.50;3.53;;;9.60;99.90;;;;;;5112648;27;20413;-67
2024/02/03 03:12:40;;;;;;;8.57;3.22;;;9.50;99.90;;;;;;5100739;28;20082;-67
2024/02/03 03:15:06;;;;;;;11.30;2.97;;;9.50;99.90;;;;;;5099447;28;20120;-67
2024/02/03 03:17:31;;;;;;;11.50;2.90;;;9.60;99.90;;;;;;5078988;28;20043;-67
2024/02/03 03:19:57;;;;;;;7.90;3.38;;;9.60;99.90;;;;;;5100170;28;20645;-67
2024/02/03 03:22:23;;;;;;;6.50;2.60;;;9.50;99.90;;;;;;5101207;28;20050;-66
2024/02/03 03:24:48;;;;;;;9.90;3.05;;;9.50;99.90;;;;;;5100583;28;20089;-66
2024/02/03 03:27:14;;;;;;;9.18;2.83;;;9.60;99.90;;;;;;5083525;28;20040;-67
2024/02/03 03:29:41;;;;;;;10.60;3.00;;;9.60;99.90;;;;;;5080288;28;20032;-67
2024/02/03 03:32:07;;;;;;;11.95;2.75;;;9.60;99.90;;;;;;5113207;27;20044;-67
2024/02/03 03:34:33;;;;;;;9.45;3.17;;;9.60;99.90;;;;;;5079245;28;20405;-67
2024/02/03 03:36:58;;;;;;;7.00;2.45;;;9.60;99.90;;;;;;5097674;28;20488;-67
2024/02/03 03:39:24;;;;;;;10.68;2.83;;;9.60;99.90;;;;;;5080292;28;20516;-67
2024/02/03 03:41:50;;;;;;;10.20;2.92;;;9.60;99.90;;;;;;5082600;28;20040;-67
2024/02/03 03:44:15;;;;;;;8.55;2.75;;;9.60;99.90;;;;;;5066441;28;20531;-67
2024/02/03 03:46:41;;;;;;;7.13;2.60;;;9.60;99.90;;;;;;5096137;28;20047;-67
2024/02/03 03:49:07;;;;;;;9.30;3.20;;;10.00;99.90;;;;;;5111051;27;20084;-67
2024/02/03 03:51:32;;;;;;;11.68;3.15;;;9.80;99.90;;;;;;5079353;28;20036;-67
2024/02/03 03:53:59;;;;;;;8.25;2.92;;;9.70;99.90;;;;;;5080895;28;20141;-67
2024/02/03 03:56:25;;;;;;;8.80;3.33;;;9.70;99.90;;;;;;5081724;28;20035;-67
2024/02/03 03:58:51;;;;;;;7.70;2.33;;;9.70;99.90;;;;;;5097795;28;20584;-67
2024/02/03 04:01:16;;;;;;;9.73;2.72;;;9.70;99.90;;;;;;5081169;28;20050;-67
2024/02/03 04:03:42;;;;;;;12.60;2.75;;;9.70;99.90;;;;;;5088249;28;20036;-67
2024/02/03 04:06:08;;;;;;;7.45;2.88;;;9.70;99.90;;;;;;5081602;28;20564;-67
2024/02/03 04:08:34;;;;;;;10.30;2.80;;;9.70;99.90;;;;;;5080773;28;20043;-67
2024/02/03 04:11:00;;;;;;;11.50;4.18;;;9.70;99.90;;;;;;5100425;28;20093;-67
2024/02/03 04:13:26;;;;;;;12.45;3.85;;;9.70;99.90;;;;;;5083370;28;20071;-67
2024/02/03 04:15:53;;;;;;;8.05;2.90;;;9.70;99.90;;;;;;5099452;28;20458;-67
2024/02/03 04:18:18;;;;;;;6.15;2.50;;;9.60;99.90;;;;;;5077762;28;20043;-67
2024/02/03 04:20:44;;;;;;;8.57;2.88;;;9.70;99.90;;;;;;5078584;28;20040;-67
2024/02/03 04:23:10;;;;;;;8.10;2.40;;;9.60;99.90;;;;;;5078372;28;20134;-67
2024/02/03 04:25:35;;;;;;;6.70;2.33;;;9.60;99.90;;;;;;5095448;28;20043;-66
2024/02/03 04:28:01;;;;;;;12.10;2.85;;;9.60;99.90;;;;;;5094271;28;20054;-67
2024/02/03 04:30:26;;;;;;;9.38;2.85;;;9.60;99.90;;;;;;5077587;28;20101;-67
2024/02/03 04:32:52;;;;;;;12.68;3.45;;;9.60;99.90;;;;;;5075990;28;20034;-67
2024/02/03 04:35:18;;;;;;;7.82;3.05;;;9.70;99.90;;;;;;5112752;27;20092;-67
2024/02/03 04:37:44;;;;;;;8.88;2.47;;;9.60;99.90;;;;;;5095763;28;20517;-67
2024/02/03 04:40:10;;;;;;;8.88;2.55;;;9.70;99.90;;;;;;5076115;28;20044;-67
2024/02/03 04:42:35;;;;;;;13.55;3.78;;;9.60;99.90;;;;;;5077922;28;20047;-67
2024/02/03 04:45:01;;;;;;;6.88;3.17;;;9.60;99.90;;;;;;5098195;28;20044;-67
2024/02/03 04:47:27;;;;;;;11.77;3.08;;;9.70;99.90;;;;;;5069698;28;20485;-67
2024/02/03 04:49:52;;;;;;;11.30;4.85;;;9.60;99.90;;;;;;5097230;28;20704;-67
2024/02/03 04:52:18;;;;;;;8.25;3.10;;;9.60;99.90;;;;;;5098140;28;20417;-66
2024/02/03 04:54:44;;;;;;;8.93;3.90;;;9.60;99.90;;;;;;5115657;27;20038;-67
2024/02/03 04:57:09;;;;;;;9.63;3.17;;;9.60;99.90;;;;;;5078590;28;20031;-67
2024/02/03 04:59:35;;;;;;;12.60;4.18;;;9.60;99.90;;;;;;5078240;28;20040;-67
2024/02/03 05:02:00;;;;;;;11.02;3.47;;;9.50;99.90;;;;;;5077944;28;20036;-67
2024/02/03 05:04:26;;;;;;;10.88;3.53;;;9.60;99.90;;;;;;5110190;27;20420;-67
2024/02/03 05:06:52;;;;;;;7.93;2.58;;;9.50;99.90;;;;;;5096013;28;20126;-67
2024/02/03 05:09:19;;;;;;;10.95;2.72;;;9.50;99.90;;;;;;5095768;28;20059;-67
2024/02/03 05:11:44;;;;;;;6.93;2.92;;;9.50;99.90;;;;;;5096995;28;20048;-67
2024/02/03 05:14:10;;;;;;;11.20;2.83;;;9.50;99.90;;;;;;5076649;28;20036;-67
2024/02/03 05:16:35;;;;;;;10.00;2.72;;;9.60;99.90;;;;;;5078412;28;20044;-67
2024/02/03 05:19:04;;;;;;;10.20;2.92;;;9.50;99.90;;;;;;5098080;28;20035;-67
2024/02/03 05:21:30;;;;;;;11.07;3.15;;;9.50;99.90;;;;;;5079640;28;20116;-67
2024/02/03 05:23:56;;;;;;;8.65;2.58;;;9.50;99.90;;;;;;5096628;28;20109;-67
2024/02/03 05:26:21;;;;;;;9.90;3.30;;;9.50;99.90;;;;;;5075842;28;20127;-67
2024/02/03 05:28:47;;;;;;;7.80;2.30;;;9.50;99.90;;;;;;5081381;28;20401;-67
2024/02/03 05:31:21;;;;;;;11.38;2.78;;;9.50;99.90;;;;;;5073482;28;20510;-67
2024/02/03 05:33:47;;;;;;;8.25;3.05;;;9.50;99.90;;;;;;5076083;28;20036;-67
2024/02/03 05:36:13;;;;;;;8.27;3.03;;;9.50;99.90;;;;;;5065761;28;20104;-67
2024/02/03 05:38:39;;;;;;;10.43;2.80;;;9.50;99.90;;;;;;5096655;28;20105;-67
2024/02/03 05:41:07;;;;;;;10.95;3.15;;;9.50;99.90;;;;;;5093698;28;20146;-67
2024/02/03 05:43:33;;;;;;;13.45;3.55;;;9.60;99.90;;;;;;5092875;28;20036;-67
2024/02/03 05:45:58;;;;;;;8.93;2.53;;;9.60;99.90;;;;;;5091639;28;20091;-66
2024/02/03 05:48:25;;;;;;;9.43;3.80;;;9.80;99.90;;;;;;5096038;28;20032;-66
2024/02/03 05:50:51;;;;;;;10.10;2.92;;;9.50;99.90;;;;;;5096114;28;20543;-67
2024/02/03 05:53:16;;;;;;;9.63;3.22;;;9.60;99.90;;;;;;5079789;28;20035;-67
2024/02/03 05:55:42;;;;;;;10.25;3.15;;;9.60;99.90;;;;;;5078968;28;20035;-67
2024/02/03 05:58:08;;;;;;;12.25;3.38;;;9.60;99.90;;;;;;5079620;28;20036;-67
2024/02/03 06:00:34;;;;;;;10.68;3.00;;;9.60;99.90;;;;;;5104920;27;20070;-67
2024/02/03 06:03:01;;;;;;;9.75;3.28;;;9.60;99.90;;;;;;5095646;28;20043;-67
2024/02/03 06:05:26;;;;;;;10.05;2.83;;;9.60;99.90;;;;;;5099129;28;20047;-67
2024/02/03 06:07:52;;;;;;;8.82;3.78;;;9.60;99.90;;;;;;5078009;28;20410;-66
2024/02/03 06:10:18;;;;;;;10.35;3.20;;;9.60;99.90;;;;;;5079280;28;20094;-67
2024/02/03 06:12:43;;;;;;;12.48;3.03;;;9.60;99.90;;;;;;5076591;28;20036;-67
2024/02/03 06:15:09;;;;;;;12.25;2.78;;;9.70;99.90;;;;;;5074511;28;20036;-67
2024/02/03 06:17:34;;;;;;;9.20;2.95;;;9.60;99.90;;;;;;5095903;28;20172;-66
2024/02/03 06:20:00;;;;;;;10.60;3.30;;;9.60;99.90;;;;;;5096895;28;20055;-67
2024/02/03 06:22:26;;;;;;;8.38;3.38;;;9.60;99.90;;;;;;5074729;28;20572;-67
2024/02/03 06:24:51;;;;;;;10.52;3.55;;;9.60;99.90;;;;;;5078709;28;20070;-66
2024/02/03 06:27:17;;;;;;;13.57;3.88;;;9.60;99.90;;;;;;5077687;28;20047;-67
2024/02/03 06:29:42;;;;;;;10.32;2.75;;;9.60;99.90;;;;;;5077890;28;20075;-67
2024/02/03 06:32:08;;;;;;;9.65;3.28;;;9.60;99.90;;;;;;5094666;28;20049;-67
2024/02/03 06:34:34;;;;;;;12.00;3.25;;;9.60;99.90;;;;;;5077817;28;20043;-67
2024/02/03 06:37:00;;;;;;;16.02;2.95;;;9.60;99.90;;;;;;5095726;28;20535;-67
2024/02/03 06:39:25;;;;;;;15.63;3.45;;;9.60;99.90;;;;;;5091228;28;20449;-67
2024/02/03 06:41:51;;;;;;;12.15;3.33;;;9.60;99.90;;;;;;5098273;28;20040;-67
2024/02/03 06:44:17;;;;;;;11.10;2.90;;;9.60;99.90;;;;;;5070078;28;20054;-67
2024/02/03 06:46:42;;;;;;;12.50;3.35;;;9.60;99.90;;;;;;5081613;28;20446;-67
2024/02/03 06:49:08;;;;;;;15.45;3.47;;;9.60;99.90;;;;;;5093908;28;20036;-67
2024/02/03 06:51:34;;;;;;;8.73;2.90;;;9.80;99.90;;;;;;5080303;28;20123;-67
2024/02/03 06:53:59;;;;;;;9.57;2.90;;;9.50;99.90;;;;;;5076297;28;20547;-67
2024/02/03 06:56:25;;;;;;;15.05;4.47;;;9.50;99.90;;;;;;5099095;28;20067;-67
2024/02/03 06:58:50;;;;;;;14.48;4.03;;;9.50;99.90;;;;;;5077435;28;20067;-67
2024/02/03 07:01:16;;;;;;;13.30;4.10;;;9.40;99.90;;;;;;5088364;28;20039;-67
2024/02/03 07:03:42;;;;;;;15.00;3.90;;;9.50;99.90;;;;;;5079363;28;20508;-67
2024/02/03 07:06:07;;;;;;;11.30;3.65;;;9.40;99.90;;;;;;5095028;28;20481;-67
2024/02/03 07:08:33;;;;;;;12.63;3.90;;;9.40;99.90;;;;;;5079380;28;20093;-67
2024/02/03 07:10:59;;;;;;;11.70;3.38;;;9.40;99.90;;;;;;5075373;28;20051;-67
2024/02/03 07:13:25;;;;;;;12.27;3.40;;;9.70;99.90;;;;;;5074488;28;20474;-67
2024/02/03 07:15:51;;;;;;;13.77;3.28;;;9.40;99.90;;;;;;5077477;28;20073;-66
2024/02/03 07:18:17;;;;;;;13.90;3.95;;;9.40;99.90;;;;;;5076742;28;20500;-67
2024/02/03 07:20:42;;;;;;;14.65;3.15;;;9.40;99.90;;;;;;5109479;27;20138;-67
2024/02/03 07:23:08;;;;;;;13.95;3.97;;;9.40;99.90;;;;;;5094756;28;20039;-67
2024/02/03 07:25:34;;;;;;;13.80;3.90;;;9.40;99.90;;;;;;5079260;28;20115;-67
2024/02/03 07:28:00;;;;;;;16.63;3.78;;;9.40;99.90;;;;;;5095050;28;20070;-67
2024/02/03 07:30:25;;;;;;;13.50;4.35;;;9.40;99.90;;;;;;5079993;28;20095;-67
2024/02/03 07:32:51;;;;;;;10.23;3.20;;;9.40;99.90;;;;;;5078698;28;20505;-67
2024/02/03 07:35:17;;;;;;;11.45;3.72;;;9.40;99.90;;;;;;5071929;28;20100;-67
2024/02/03 07:37:42;;;;;;;15.27;3.90;;;9.40;99.90;;;;;;5112474;27;20032;-67
2024/02/03 07:40:09;;;;;;;13.88;3.88;;;9.40;99.90;;;;;;5072699;28;21808;-67
2024/02/03 07:42:35;;;;;;;11.48;3.25;;;9.40;99.90;;;;;;5095782;28;20039;-67
2024/02/03 07:45:00;;;;;;;16.15;3.28;;;9.40;99.90;;;;;;5093783;28;20393;-67
2024/02/03 07:47:26;;;;;;;15.38;3.67;;;9.40;99.90;;;;;;5072738;28;20052;-67
2024/02/03 07:49:52;;;;;;;12.98;3.00;;;9.40;99.90;;;;;;5074897;28;20046;-67
2024/02/03 07:52:18;;;;;;;8.80;2.70;;;9.50;99.90;;;;;;5076300;28;20615;-67
2024/02/03 07:54:43;;;;;;;16.38;3.67;;;9.50;99.90;;;;;;5107670;27;20043;-67
2024/02/03 07:57:09;;;;;;;13.77;2.60;;;9.50;99.90;;;;;;5090054;28;20044;-67
2024/02/03 07:59:35;;;;;;;12.27;3.38;;;9.50;99.90;;;;;;5091537;28;20040;-67
2024/02/03 08:02:00;;;;;;;8.63;2.42;;;9.50;99.90;;;;;;5075209;28;20127;-67
2024/02/03 08:04:26;;;;;;;10.80;2.58;;;9.60;99.90;;;;;;5079934;28;20054;-67
2024/02/03 08:06:51;;;;;;;10.13;2.95;;;9.50;99.90;;;;;;5076370;28;20477;-67
2024/02/03 08:09:17;;;;;;;18.00;4.38;;;9.60;99.90;;;;;;5072373;28;20068;-67
2024/02/03 08:11:44;;;;;;;15.05;4.03;;;9.70;99.90;;;;;;5093691;28;20032;-67
2024/02/03 08:14:10;;;;;;;9.63;2.72;;;9.70;99.90;;;;;;5091302;28;20508;-67
2024/02/03 08:16:35;;;;;;;8.93;2.55;;;9.60;99.90;;;;;;5097065;28;20063;-67
2024/02/03 08:19:01;;;;;;;8.57;3.10;;;9.60;99.90;;;;;;5076303;28;20047;-67
2024/02/03 08:21:27;;;;;;;11.30;2.65;;;9.60;99.90;;;;;;5079176;28;20093;-67
2024/02/03 08:23:52;;;;;;;11.57;2.40;;;9.70;99.90;;;;;;5093458;28;20035;-67
2024/02/03 08:26:18;;;;;;;11.93;2.10;;;9.70;99.90;;;;;;5093730;28;20032;-67
2024/02/03 08:28:44;;;;;;;13.10;3.38;;;9.70;99.90;;;;;;5094571;28;20039;-67
2024/02/03 08:31:11;;;;;;;16.50;3.40;;;9.80;99.90;;;;;;5098957;28;20123;-67
2024/02/03 08:33:37;;;;;;;12.63;2.92;;;9.70;99.90;;;;;;5079270;28;20088;-67
2024/02/03 08:36:03;;;;;;;10.68;2.55;;;9.70;99.90;;;;;;5059842;28;20032;-67
2024/02/03 08:38:29;;;;;;;13.88;2.97;;;9.70;99.90;;;;;;5075171;28;20048;-67
2024/02/03 08:40:54;;;;;;;11.45;2.92;;;9.70;99.90;;;;;;5078259;28;20065;-66
2024/02/03 08:43:20;;;;;;;8.52;1.90;;;9.80;99.90;;;;;;5108557;27;20082;-66
2024/02/03 08:45:46;;;;;;;11.55;2.60;;;9.70;99.90;;;;;;5091865;28;20481;-66
2024/02/03 08:48:11;;;;;;;9.50;2.60;;;9.80;99.90;;;;;;5080360;28;20044;-67
2024/02/03 08:50:37;;;;;;;13.60;3.10;;;9.80;99.90;;;;;;5069728;28;20036;-67
2024/02/03 08:53:03;;;;;;;10.10;2.53;;;9.80;99.90;;;;;;5076709;28;20527;-66
2024/02/03 08:55:28;;;;;;;13.82;3.47;;;9.90;99.90;;;;;;5079012;28;20701;-67
2024/02/03 08:57:55;;;;;;;11.27;2.38;;;9.90;99.90;;;;;;5080010;28;20040;-67
2024/02/03 09:00:21;;;;;;;13.55;2.78;;;9.90;99.90;;;;;;5111413;27;20068;-67
2024/02/03 09:02:47;;;;;;;6.60;1.83;;;9.90;99.90;;;;;;5092044;28;20044;-67
2024/02/03 09:05:13;;;;;;;7.60;2.15;;;9.90;99.90;;;;;;5108196;27;20036;-67
2024/02/03 09:07:38;;;;;;;11.20;2.58;;;9.90;99.90;;;;;;5096297;28;20043;-66
2024/02/03 09:10:05;;;;;;;10.00;2.30;;;10.00;99.90;;;;;;5074630;28;20071;-66
2024/02/03 09:12:30;;;;;;;12.52;2.33;;;10.00;99.90;;;;;;5079654;28;20032;-67
2024/02/03 09:14:56;;;;;;;8.82;3.00;;;10.00;99.90;;;;;;5083589;28;20050;-67
2024/02/03 09:17:22;;;;;;;13.57;2.28;;;10.00;99.90;;;;;;5079507;28;20043;-66
2024/02/03 09:19:48;;;;;;;9.18;2.80;;;10.00;99.90;;;;;;5079994;28;20070;-67
2024/02/03 09:22:14;;;;;;;8.00;2.10;;;10.10;99.90;;;;;;5096504;28;20040;-67
2024/02/03 09:24:40;;;;;;;8.23;2.30;;;10.10;99.90;;;;;;5096735;28;20401;-67
2024/02/03 09:27:06;;;;;;;11.27;2.28;;;10.10;99.90;;;;;;5078667;28;20374;-67
2024/02/03 09:29:32;;;;;;;9.48;2.20;;;10.10;99.90;;;;;;5059444;28;20058;-67
2024/02/03 09:31:58;;;;;;;8.50;2.28;;;10.20;99.90;;;;;;5079723;28;20047;-67
2024/02/03 09:34:23;;;;;;;11.27;3.17;;;10.20;99.90;;;;;;5094913;28;20032;-66
2024/02/03 09:36:49;;;;;;;10.88;2.22;;;10.20;99.90;;;;;;5079816;28;20036;-67
2024/02/03 09:39:14;;;;;;;11.73;2.67;;;10.20;99.90;;;;;;5095093;28;20043;-66
2024/02/03 09:41:44;;;;;;;11.68;2.20;;;10.90;99.90;;;;;;5080543;28;20674;-67
2024/02/03 09:44:09;;;;;;;11.45;2.45;;;10.30;99.90;;;;;;5094824;28;20430;-66
2024/02/03 09:46:35;;;;;;;8.90;1.83;;;10.30;99.90;;;;;;5095470;28;20035;-66
2024/02/03 09:49:01;;;;;;;8.70;1.80;;;10.30;99.90;;;;;;5077324;28;20047;-66
2024/02/03 09:51:30;;;;;;;7.38;2.30;;;10.40;99.90;;;;;;5076249;28;20081;-66
2024/02/03 09:53:57;;;;;;;7.97;2.05;;;10.30;99.90;;;;;;5077887;28;20039;-67
2024/02/03 09:56:22;;;;;;;9.27;1.75;;;10.40;99.90;;;;;;5078873;28;20040;-67
2024/02/03 09:58:48;;;;;;;11.55;2.90;;;10.40;99.90;;;;;;5078362;28;20039;-67
2024/02/03 10:01:14;;;;;;;10.48;2.72;;;10.50;99.90;;;;;;5091975;28;20460;-66
2024/02/03 10:03:41;;;;;;;9.70;2.33;;;10.50;99.90;;;;;;5078629;28;20032;-67
2024/02/03 10:06:10;;;;;;;7.80;2.35;;;10.60;99.90;;;;;;5076980;28;20044;-67
2024/02/03 10:08:35;;;;;;;9.82;1.67;;;10.60;99.90;;;;;;5093454;28;20047;-67
2024/02/03 10:11:01;;;;;;;9.48;1.85;;;10.70;99.90;;;;;;5095014;28;20595;-67
2024/02/03 10:13:27;;;;;;;11.82;3.88;;;10.70;99.90;;;;;;5078677;28;20577;-66
2024/02/03 10:16:01;;;;;;;8.63;2.38;;;10.70;99.90;;;;;;5077187;28;20205;-66
2024/02/03 10:18:27;;;;;;;11.25;2.55;;;10.80;99.90;;;;;;5108892;28;20056;-67
2024/02/03 10:20:53;;;;;;;7.55;1.90;;;10.80;99.90;;;;;;5104292;28;20037;-67
2024/02/03 10:23:19;;;;;;;7.18;1.88;;;10.80;99.90;;;;;;5092566;28;20074;-67
2024/02/03 10:25:45;;;;;;;9.00;1.60;;;11.00;99.90;;;;;;5076187;28;20040;-67
2024/02/03 10:28:11;;;;;;;13.05;3.05;;;10.80;99.90;;;;;;5097544;28;20032;-67
2024/02/03 10:30:37;;;;;;;9.73;2.30;;;10.80;99.90;;;;;;5091703;28;20044;-67
2024/02/03 10:33:04;;;;;;;10.02;1.95;;;10.80;99.90;;;;;;5074102;28;20064;-67
2024/02/03 10:35:32;;;;;;;9.32;1.92;;;10.80;99.90;;;;;;5093105;28;20032;-67
2024/02/03 10:37:58;;;;;;;14.32;2.22;;;10.80;99.90;;;;;;5072374;28;20138;-67
2024/02/03 10:40:25;;;;;;;10.70;1.95;;;10.90;99.90;;;;;;5103484;28;20040;-67
2024/02/03 10:42:55;;;;;;;8.65;2.28;;;10.90;99.90;;;;;;5073979;28;20044;-67
2024/02/03 10:45:35;;;;;;;10.25;1.65;;;11.00;99.90;;;;;;5091571;28;20454;-67
2024/02/03 10:48:02;;;;;;;11.23;1.95;;;11.00;99.90;;;;;;5076635;28;20082;-67
2024/02/03 10:50:34;;;;;;;11.18;2.90;;;11.10;99.90;;;;;;5100304;28;20044;-67
2024/02/03 10:53:05;;;;;;;11.77;2.70;;;11.00;99.90;;;;;;5109033;28;20061;-67
2024/02/03 10:55:34;;;;;;;12.23;3.35;;;11.10;99.90;;;;;;5050398;28;20043;-67
2024/02/03 10:58:02;;;;;;;9.73;2.75;;;11.10;99.90;;;;;;5067379;28;20039;-67
2024/02/03 11:00:28;;;;;;;7.68;1.75;;;11.10;99.90;;;;;;5074847;28;20040;-67
2024/02/03 11:02:58;;;;;;;8.48;2.28;;;11.10;99.90;;;;;;5055634;28;20499;-66
2024/02/03 11:05:28;;;;;;;7.45;1.88;;;11.20;99.90;;;;;;5086414;28;20043;-66
2024/02/03 11:07:54;;;;;;;11.48;3.25;;;11.10;99.90;;;;;;5089180;28;20055;-66
2024/02/03 11:10:27;;;;;;;8.43;2.08;;;11.40;99.90;;;;;;5090483;28;20482;-66
2024/02/03 11:12:53;;;;;;;9.38;2.08;;;11.10;99.90;;;;;;5090474;28;20028;-65
2024/02/03 11:15:20;;;;;;;9.40;1.95;;;11.20;99.90;;;;;;5071348;28;20051;-66
2024/02/03 11:17:46;;;;;;;7.80;1.50;;;11.20;99.90;;;;;;5071420;28;20036;-65
2024/02/03 11:20:19;;;;;;;10.10;2.70;;;11.20;99.90;;;;;;5071755;28;20095;-67
2024/02/03 11:22:52;;;;;;;9.98;1.70;;;11.20;99.90;;;;;;5068737;28;20047;-68
2024/02/03 11:25:19;;;;;;;11.38;2.35;;;11.30;99.90;;;;;;5069013;28;20470;-68
2024/02/03 11:27:50;;;;;;;9.30;2.20;;;11.40;99.90;;;;;;5068071;28;20044;-66
2024/02/03 11:30:19;;;;;;;7.90;2.58;;;11.40;99.90;;;;;;5109197;27;20040;-66
2024/02/03 11:32:45;;;;;;;9.82;1.77;;;11.50;99.90;;;;;;5093203;28;20071;-66
2024/02/03 11:35:14;;;;;;;9.88;1.80;;;11.60;99.90;;;;;;5093644;28;20056;-66
2024/02/03 11:37:39;;;;;;;6.90;2.10;;;11.60;99.90;;;;;;5075665;28;20072;-66
2024/02/03 11:40:07;;;;;;;10.90;1.90;;;11.70;99.90;;;;;;5074117;28;20453;-66
2024/02/03 11:42:32;;;;;;;11.93;2.25;;;11.80;99.90;;;;;;5094039;28;20496;-66
2024/02/03 11:45:02;;;;;;;7.85;1.27;;;11.90;99.90;;;;;;5087865;28;20041;-66
2024/02/03 11:47:30;;;;;;;6.68;1.45;;;11.80;99.90;;;;;;5073159;28;20036;-66
2024/02/03 11:49:55;;;;;;;6.10;1.35;;;11.90;99.90;;;;;;5075338;28;20040;-66
2024/02/03 11:52:23;;;;;;;11.38;1.98;;;11.80;99.90;;;;;;5071528;28;20032;-66
2024/02/03 11:54:49;;;;;;;9.60;2.30;;;11.70;99.90;;;;;;5105331;27;20477;-66
2024/02/03 11:57:15;;;;;;;8.75;1.92;;;11.70;99.90;;;;;;5073534;28;20044;-66
2024/02/03 11:59:41;;;;;;;8.43;2.17;;;11.80;99.90;;;;;;5093083;28;20063;-66
2024/02/03 12:02:07;;;;;;;7.20;1.30;;;11.80;99.90;;;;;;5088941;28;20051;-66
2024/02/03 12:04:33;;;;;;;7.97;1.75;;;11.90;99.90;;;;;;5076609;28;20078;-66
2024/02/03 12:06:59;;;;;;;6.93;1.83;;;12.00;99.90;;;;;;5105363;27;20051;-66
2024/02/03 12:09:25;;;;;;;11.07;2.55;;;12.00;99.90;;;;;;5073415;28;20067;-66
2024/02/03 12:11:53;;;;;;;7.63;2.25;;;12.00;99.90;;;;;;5104752;27;20070;-66
2024/02/03 12:14:21;;;;;;;5.95;1.15;;;12.10;99.90;;;;;;5092226;28;20047;-66
2024/02/03 12:16:47;;;;;;;7.95;1.42;;;12.00;99.90;;;;;;5089708;28;20040;-66
2024/02/03 12:19:14;;;;;;;5.15;1.30;;;12.00;99.90;;;;;;5088510;28;20055;-66
2024/02/03 12:21:40;;;;;;;7.50;1.50;;;12.00;99.90;;;;;;5089893;28;20047;-66
2024/02/03 12:24:07;;;;;;;7.28;1.85;;;11.90;99.90;;;;;;5075348;28;20127;-66
2024/02/03 12:26:34;;;;;;;6.75;2.10;;;11.90;99.90;;;;;;5076025;28;20046;-66
2024/02/03 12:29:01;;;;;;;4.32;1.10;;;11.90;99.90;;;;;;5072352;28;20032;-66
2024/02/03 12:31:26;;;;;;;9.25;1.73;;;11.80;99.90;;;;;;5089098;28;20054;-66
2024/02/03 12:33:52;;;;;;;4.78;1.67;;;11.80;99.90;;;;;;5060943;28;20043;-66
2024/02/03 12:36:19;;;;;;;6.82;1.23;;;11.80;99.90;;;;;;5091126;28;20074;-66
2024/02/03 12:38:45;;;;;;;7.50;1.48;;;11.70;99.90;;;;;;5074024;28;20055;-66
2024/02/03 12:41:11;;;;;;;6.80;1.30;;;11.80;99.90;;;;;;5067034;28;20134;-66